Estación de Nueva Imperial
Ultimos registro cada 15 minutos 75
| N° | Estación | Fecha / Hora | Temperatura | Humedad | Lluvia | Velocidad | Dirección | Radiación | Presion |
| 75 | Nueva Imperial | 08-05-2026 18:30 | 7 | 94,8 | 0 | 0 | 24 | 0,6 | 1016 |
| 74 | Nueva Imperial | 08-05-2026 18:15 | 7,6 | 94,3 | 0 | 0 | 80 | 0,6 | 1015,8 |
| 73 | Nueva Imperial | 08-05-2026 18:00 | 8,2 | 93,1 | 0,2 | 0 | 28 | 0,6 | 1015,6 |
| 72 | Nueva Imperial | 08-05-2026 17:45 | 8,6 | 92,5 | 0 | 0 | 56 | 5,6 | 1015,6 |
| 71 | Nueva Imperial | 08-05-2026 17:30 | 9,3 | 91,2 | 0 | 0 | 51 | 10,6 | 1015,3 |
| 70 | Nueva Imperial | 08-05-2026 17:15 | 10,1 | 89,6 | 0 | 0,3 | 80 | 16,9 | 1015 |
| 69 | Nueva Imperial | 08-05-2026 17:00 | 10,5 | 89,3 | 0,2 | 0,3 | 62 | 20,6 | 1014,8 |
| 68 | Nueva Imperial | 08-05-2026 16:45 | 11,4 | 86,8 | 0 | 0,3 | 77 | 39,4 | 1014,6 |
| 67 | Nueva Imperial | 08-05-2026 16:30 | 11,7 | 86,6 | 0 | 0,3 | 88 | 223,1 | 1014,5 |
| 66 | Nueva Imperial | 08-05-2026 16:15 | 12,8 | 85,5 | 0 | 0,3 | 94 | 233,1 | 1014,5 |
| 65 | Nueva Imperial | 08-05-2026 16:00 | 11,4 | 88,6 | 0 | 0,3 | 65 | 39,4 | 1014,3 |
| 64 | Nueva Imperial | 08-05-2026 15:45 | 11,5 | 88,5 | 0,2 | 0,3 | 51 | 146,9 | 1014,1 |
| 63 | Nueva Imperial | 08-05-2026 15:30 | 13 | 85,7 | 0 | 0,7 | 93 | 63,1 | 1014,1 |
| 62 | Nueva Imperial | 08-05-2026 15:15 | 14,8 | 84,7 | 0 | 0,3 | 105 | 511,9 | 1013,8 |
| 61 | Nueva Imperial | 08-05-2026 15:00 | 12,9 | 87 | 0 | 0,7 | 100 | 176,9 | 1013,7 |
| 60 | Nueva Imperial | 08-05-2026 14:45 | 12,1 | 89,7 | 0,2 | 0,7 | 67 | 241,9 | 1013,4 |
| 59 | Nueva Imperial | 08-05-2026 14:30 | 12,4 | 91,8 | 0 | 0,3 | 87 | 208,1 | 1013,3 |
| 58 | Nueva Imperial | 08-05-2026 14:15 | 14,1 | 88,8 | 0 | 0,3 | 77 | 206,9 | 1013,2 |
| 57 | Nueva Imperial | 08-05-2026 14:00 | 12,3 | 94,1 | 0 | 0,3 | 88 | 275,6 | 1013,2 |
| 56 | Nueva Imperial | 08-05-2026 13:45 | 11,7 | 94,7 | 0,2 | 0,3 | 102 | 183,1 | 1013,3 |
| 55 | Nueva Imperial | 08-05-2026 13:30 | 11,6 | 96,1 | 0 | 0,3 | 81 | 186,9 | 1013,4 |
| 54 | Nueva Imperial | 08-05-2026 13:15 | 11,7 | 97,1 | 0 | 0,7 | 88 | 194,4 | 1013,4 |
| 53 | Nueva Imperial | 08-05-2026 13:00 | 11,6 | 97,8 | 0 | 0,3 | 93 | 216,9 | 1013,2 |
| 52 | Nueva Imperial | 08-05-2026 12:45 | 10,8 | 98,4 | 0 | 0,3 | 74 | 219,4 | 1013,4 |
| 51 | Nueva Imperial | 08-05-2026 12:30 | 10,1 | 98,4 | 0 | 0,3 | 90 | 161,9 | 1013,2 |
| 50 | Nueva Imperial | 08-05-2026 12:15 | 9,9 | 98,7 | 0,2 | 0,3 | 104 | 119,4 | 1013,3 |
| 49 | Nueva Imperial | 08-05-2026 12:00 | 10 | 98,5 | 0 | 0,3 | 95 | 65,6 | 1013,4 |
| 48 | Nueva Imperial | 08-05-2026 11:45 | 10,1 | 98,7 | 0 | 0 | 174 | 70,6 | 1013,4 |
| 47 | Nueva Imperial | 08-05-2026 11:30 | 9,8 | 98,7 | 0 | 0 | 102 | 99,4 | 1013 |
| 46 | Nueva Imperial | 08-05-2026 11:15 | 9,5 | 98,7 | 0 | 0 | 88 | 65,6 | 1012,9 |
| 45 | Nueva Imperial | 08-05-2026 11:00 | 9,4 | 98,8 | 0 | 0 | 76 | 48,1 | 1012,9 |
| 44 | Nueva Imperial | 08-05-2026 10:45 | 9,3 | 98,8 | 0 | 0,7 | 344 | 49,4 | 1012,7 |
| 43 | Nueva Imperial | 08-05-2026 10:30 | 9,4 | 98,8 | 0 | 0,7 | 25 | 66,9 | 1012,5 |
| 42 | Nueva Imperial | 08-05-2026 10:15 | 9,3 | 98,8 | 0,2 | 0,7 | 67 | 75,6 | 1012,5 |
| 41 | Nueva Imperial | 08-05-2026 10:00 | 9,2 | 98,9 | 0 | 1 | 76 | 53,1 | 1012,5 |
| 40 | Nueva Imperial | 08-05-2026 09:45 | 9,3 | 98,8 | 0 | 0,7 | 80 | 75,6 | 1012,7 |
| 39 | Nueva Imperial | 08-05-2026 09:30 | 9,4 | 98,9 | 0 | 0,3 | 18 | 99,4 | 1012,6 |
| 38 | Nueva Imperial | 08-05-2026 09:15 | 8,9 | 98,9 | 0 | 0,7 | 70 | 59,4 | 1012,5 |
| 37 | Nueva Imperial | 08-05-2026 09:00 | 8,6 | 98,9 | 0 | 1 | 76 | 71,9 | 1012,7 |
| 36 | Nueva Imperial | 08-05-2026 08:45 | 8,2 | 98,9 | 0 | 1 | 94 | 24,4 | 1012,5 |
| 35 | Nueva Imperial | 08-05-2026 08:30 | 8,3 | 99 | 0 | 0,3 | 95 | 6,9 | 1012,6 |
| 34 | Nueva Imperial | 08-05-2026 08:15 | 8,3 | 98,9 | 0,2 | 0,3 | 84 | 5,6 | 1012,1 |
| 33 | Nueva Imperial | 08-05-2026 08:00 | 8,2 | 98,9 | 0 | 0,3 | 80 | 1,9 | 1011,9 |
| 32 | Nueva Imperial | 08-05-2026 07:45 | 8,2 | 98,9 | 0 | 0,3 | 13 | 0,6 | 1011,8 |
| 31 | Nueva Imperial | 08-05-2026 07:30 | 8,2 | 98,9 | 0 | 0,7 | 8 | 0,6 | 1011,3 |
| 30 | Nueva Imperial | 08-05-2026 07:15 | 8,1 | 98,9 | 0 | 0,7 | 11 | 0,6 | 1011,2 |
| 29 | Nueva Imperial | 08-05-2026 07:00 | 8,1 | 98,9 | 0 | 1 | 11 | 0,6 | 1011 |
| 28 | Nueva Imperial | 08-05-2026 06:45 | 8,1 | 99 | 0,2 | 0,7 | 73 | 0,6 | 1011,2 |
| 27 | Nueva Imperial | 08-05-2026 06:30 | 8 | 98,9 | 0 | 1 | 70 | 0,6 | 1011 |
| 26 | Nueva Imperial | 08-05-2026 06:15 | 7,9 | 98,9 | 0 | 1 | 74 | 0,6 | 1011,2 |
| 25 | Nueva Imperial | 08-05-2026 06:00 | 7,9 | 98,9 | 0 | 1 | 76 | 0,6 | 1011,2 |
| 24 | Nueva Imperial | 08-05-2026 05:45 | 7,9 | 98,8 | 0 | 1 | 83 | 0,6 | 1011 |
| 23 | Nueva Imperial | 08-05-2026 05:30 | 7,8 | 98,8 | 0 | 1 | 88 | 0,6 | 1011 |
| 22 | Nueva Imperial | 08-05-2026 05:15 | 7,8 | 98,7 | 0,2 | 0,3 | 104 | 0,6 | 1011 |
| 21 | Nueva Imperial | 08-05-2026 05:00 | 7,8 | 98,6 | 0 | 1 | 79 | 0,6 | 1010,9 |
| 20 | Nueva Imperial | 08-05-2026 04:45 | 7,7 | 98,6 | 0 | 1 | 76 | 0,6 | 1010,7 |
| 19 | Nueva Imperial | 08-05-2026 04:30 | 7,7 | 98,6 | 0 | 1,3 | 77 | 0,6 | 1010,5 |
| 18 | Nueva Imperial | 08-05-2026 04:15 | 7,7 | 98,4 | 0 | 1,3 | 74 | 0,6 | 1010,5 |
| 17 | Nueva Imperial | 08-05-2026 04:00 | 7,7 | 98,3 | 0 | 1,7 | 77 | 0,6 | 1010,6 |
| 16 | Nueva Imperial | 08-05-2026 03:45 | 7,7 | 98,3 | 0,2 | 1,7 | 73 | 0,6 | 1010,8 |
| 15 | Nueva Imperial | 08-05-2026 03:30 | 7,6 | 98,2 | 0 | 1 | 77 | 0,6 | 1011 |
| 14 | Nueva Imperial | 08-05-2026 03:15 | 7,6 | 98,1 | 0 | 1 | 67 | 0,6 | 1011 |
| 13 | Nueva Imperial | 08-05-2026 03:00 | 7,6 | 97,9 | 0 | 1 | 39 | 0,6 | 1011,2 |
| 12 | Nueva Imperial | 08-05-2026 02:45 | 7,5 | 97,9 | 0 | 1 | 38 | 0,6 | 1011,4 |
| 11 | Nueva Imperial | 08-05-2026 02:30 | 7,5 | 98,1 | 0 | 1,3 | 60 | 0,6 | 1011,4 |
| 10 | Nueva Imperial | 08-05-2026 02:15 | 7,5 | 98,2 | 0,2 | 1,7 | 76 | 0,6 | 1011,5 |
| 9 | Nueva Imperial | 08-05-2026 02:00 | 7,5 | 98,3 | 0 | 1,7 | 72 | 0,6 | 1011,8 |
| 8 | Nueva Imperial | 08-05-2026 01:45 | 7,5 | 98,3 | 0 | 1,3 | 73 | 0,6 | 1012,3 |
| 7 | Nueva Imperial | 08-05-2026 01:30 | 7,6 | 98,4 | 0 | 1,3 | 60 | 0,6 | 1012,6 |
| 6 | Nueva Imperial | 08-05-2026 01:15 | 7,6 | 98,4 | 0 | 1 | 25 | 0,6 | 1012,7 |
| 5 | Nueva Imperial | 08-05-2026 01:00 | 7,7 | 98,3 | 0,2 | 1 | 15 | 0,6 | 1013 |
| 4 | Nueva Imperial | 08-05-2026 00:45 | 7,7 | 98,4 | 0 | 1 | 21 | 0,6 | 1013,1 |
| 3 | Nueva Imperial | 08-05-2026 00:30 | 7,7 | 98,4 | 0 | 1,3 | 21 | 0,6 | 1013,3 |
| 2 | Nueva Imperial | 08-05-2026 00:15 | 7,7 | 98,3 | 0 | 1,7 | 56 | 0,6 | 1013,4 |
| 1 | Nueva Imperial | 08-05-2026 00:00 | 7,7 | 98,2 | 0 | 1,3 | 48 | 0,6 | 1014 |